Oconomowoc, WI (53066)

8:42 PM CDT on August 02, 2015 (GMT -0500)
Hidden Ridge | | Change Station
CLOSE
Current Station
Personal Weather Station
Location: Oconomowoc, WI
Elevation: 909 ft
Nearby Weather Stations

Elev 909 ft 43.10 °N, 88.48 °W | Updated 12 minutes ago

Mostly Cloudy
Mostly Cloudy
76.1 °F
Feels Like 78 °F
N
4.7
Wind Variable Wind from WNW

Today
High -- | Low -- °F
--% Chance of Precip.
Yesterday
High -- | Low -- °F
Precip. -- in
5:45 AM 8:14 PM
Waning Gibbous, 90% visible
Pressure 29.60 in
Visibility 10.0 miles
Clouds Scattered Clouds 4400 ft
Mostly Cloudy 6500 ft
Heat Index 78 °F
Dew Point 66 °F
Humidity 70%
Rainfall 0.00 in
Snow Depth Not available.
UV 0 out of 12
Pollen 6.90 out of 12
Air Quality Not available.
Flu Activity Not available.
METAR KUES 030045Z 30016G29KT 240V320 10SM -RA SCT044 BKN065 28/21 A2960

More Conditions Fewer Conditions

Pressure 29.60 in
Visibility 10.0 miles
Clouds Scattered Clouds 4400 ft
Mostly Cloudy 6500 ft
Heat Index 78 °F
Dew Point 66 °F
Humidity 70%
Rainfall 0.00 in
Snow Depth Not available.
UV 0 out of 12
Pollen 6.90 out of 12
Air Quality Not available.
Flu Activity Not available.
METAR KUES 030045Z 30016G29KT 240V320 10SM -RA SCT044 BKN065 28/21 A2960

More Conditions Fewer Conditions

10-Day Weather Forecast

×

Almanac

Astronomy

Aug. 02, 2015 Rise Set
Actual Time
Civil Twilight
Nautical Twilight
Astronomical Twilight
Moon
Length of Visible Light
Length of Day
Tomorrow will be .
, % of the Moon is Illuminated

Today's Extremes

State Highs State Lows

Community

WunderPhotos

Upload Photos

1,843,512 photos uploaded!

WunderBlogs® & News

Nearby

Air Quality

  Air Quality AQ Index Pollutant
Not available.

Snow Depth

Station Depth Elevation

Earthquake Activity

City Distance Mag. Time & Date
Minimum magnitude displayed is 2.5.

Coastal Water Temperatures

Place Temperature

Stations

Nearby Weather Stations

Station Location Temp. Windchill Dew Point Humidity Wind Precip. Elev Updated Type
                   
Severe Thunderstorm Warning
Statement as of 8:41 PM CDT on August 02, 2015

... The Severe Thunderstorm Warning for southern Milwaukee and
southeastern Waukesha counties is cancelled...

the storms which prompted the warning have moved out of the area.
Therefore the warning has been cancelled.

A Severe Thunderstorm Watch remains in effect until 1000 PM CDT for
southeastern Wisconsin.

Lat... Lon 4284 8825 4291 8823 4301 8789 4296 8785
      4288 8785 4285 8783 4284 8784
time... Mot... loc 0138z 278deg 34kt 4291 8762 4282 8793


Gehring


Severe Thunderstorm Watch
Statement as of 8:24 PM CDT on August 02, 2015

Severe Thunderstorm Watch 462 remains in effect until 1000 PM CDT
for the following locations


WI
. Wisconsin counties included are

Columbia Dane Dodge
Fond Du Lac green Green Lake
Iowa Jefferson Kenosha
Lafayette Marquette Milwaukee
Ozaukee Racine rock
Sauk Sheboygan Walworth
Washington Waukesha